createdAt,value
2019-01-30T00:01:28.048Z,2.10
2019-01-30T00:03:58.570Z,2.10
2019-01-30T00:06:31.310Z,2.00
2019-01-30T00:09:02.348Z,2.00
2019-01-30T00:11:33.177Z,2.00
2019-01-30T00:14:03.557Z,2.00
2019-01-30T00:16:33.768Z,2.00
2019-01-30T00:19:04.015Z,2.00
2019-01-30T00:21:38.155Z,2.00
2019-01-30T00:24:09.092Z,2.00
2019-01-30T00:26:45.627Z,2.00
2019-01-30T00:29:16.117Z,2.00
2019-01-30T00:31:55.272Z,2.00
2019-01-30T00:34:29.345Z,1.90
2019-01-30T00:36:59.473Z,2.00
2019-01-30T00:39:29.528Z,1.90
2019-01-30T00:41:59.702Z,1.90
2019-01-30T00:44:30.025Z,1.90
2019-01-30T00:47:01.316Z,1.90
2019-01-30T00:49:31.487Z,1.90
2019-01-30T00:52:03.608Z,1.90
2019-01-30T00:54:37.332Z,1.90
2019-01-30T00:57:07.522Z,1.90
2019-01-30T00:59:37.741Z,1.90
2019-01-30T01:02:08.147Z,1.90
2019-01-30T01:04:40.928Z,1.80
2019-01-30T01:07:11.056Z,1.80
2019-01-30T01:09:41.285Z,1.90
2019-01-30T01:12:11.696Z,1.80
2019-01-30T01:14:42.568Z,1.80
2019-01-30T01:17:12.852Z,1.80
2019-01-30T01:19:43.525Z,1.80
2019-01-30T01:22:13.597Z,1.90
2019-01-30T01:24:44.039Z,1.90
2019-01-30T01:27:14.153Z,1.80
2019-01-30T01:29:44.290Z,1.80
2019-01-30T01:32:16.136Z,1.80
2019-01-30T01:34:47.200Z,1.80
2019-01-30T01:37:17.745Z,1.90
2019-01-30T01:39:51.028Z,1.90
2019-01-30T01:42:21.364Z,1.90
2019-01-30T01:44:51.539Z,1.80
2019-01-30T01:47:21.778Z,1.80
2019-01-30T01:49:51.784Z,1.80
2019-01-30T01:52:22.001Z,1.80
2019-01-30T01:54:52.771Z,1.80
2019-01-30T01:57:22.917Z,1.80
2019-01-30T01:59:53.453Z,1.80
2019-01-30T02:02:28.511Z,1.80
2019-01-30T02:04:58.866Z,1.90
2019-01-30T02:07:30.105Z,1.90
2019-01-30T02:10:13.540Z,1.90
2019-01-30T02:12:44.358Z,1.80
2019-01-30T02:15:19.208Z,1.80
2019-01-30T02:17:50.966Z,1.80
2019-01-30T02:20:23.721Z,1.80
2019-01-30T02:22:54.447Z,1.70
2019-01-30T02:25:25.041Z,1.70
2019-01-30T02:27:56.004Z,1.70
2019-01-30T02:30:27.920Z,1.80
2019-01-30T02:32:58.106Z,1.80
2019-01-30T02:35:28.779Z,1.80
2019-01-30T02:37:59.067Z,1.80
2019-01-30T02:40:29.289Z,1.80
2019-01-30T02:42:59.612Z,1.70
2019-01-30T02:45:30.990Z,1.80
2019-01-30T02:48:01.438Z,1.80
2019-01-30T02:50:35.000Z,1.80
2019-01-30T02:53:06.559Z,1.80
2019-01-30T02:55:36.739Z,1.80
2019-01-30T02:58:06.968Z,1.80
2019-01-30T03:00:37.589Z,1.70
2019-01-30T03:03:14.955Z,1.70
2019-01-30T03:05:50.133Z,1.70
2019-01-30T03:08:26.239Z,1.70
2019-01-30T03:10:56.556Z,1.70
2019-01-30T03:13:26.594Z,1.70
2019-01-30T03:15:56.687Z,1.70
2019-01-30T03:18:27.801Z,1.70
2019-01-30T03:20:57.795Z,1.70
2019-01-30T03:23:27.798Z,1.70
2019-01-30T03:25:57.840Z,1.70
2019-01-30T03:28:27.966Z,1.80
2019-01-30T03:31:15.572Z,1.70
2019-01-30T03:33:32.156Z,1.80
2019-01-30T03:36:02.239Z,1.80
2019-01-30T03:38:32.467Z,1.70
2019-01-30T03:41:02.594Z,1.80
2019-01-30T03:43:33.062Z,1.80
2019-01-30T03:46:03.464Z,1.80
2019-01-30T03:48:35.405Z,1.80
2019-01-30T03:51:06.438Z,1.80
2019-01-30T03:53:36.474Z,1.70
2019-01-30T03:56:08.872Z,1.70
2019-01-30T03:58:39.016Z,1.70
2019-01-30T04:01:09.216Z,1.80
2019-01-30T04:03:39.562Z,1.70
2019-01-30T04:06:10.499Z,1.80
2019-01-30T04:08:40.777Z,1.80
2019-01-30T04:11:17.170Z,1.80
2019-01-30T04:13:50.946Z,1.80
2019-01-30T04:16:21.023Z,1.80
2019-01-30T04:18:51.013Z,1.80
2019-01-30T04:21:21.228Z,1.80
2019-01-30T04:23:52.136Z,1.80
2019-01-30T04:26:24.211Z,1.80
2019-01-30T04:28:54.509Z,1.70
2019-01-30T04:31:25.026Z,1.70
2019-01-30T04:33:55.209Z,1.70
2019-01-30T04:36:26.003Z,1.70
2019-01-30T04:38:56.283Z,1.70
2019-01-30T04:41:26.248Z,1.70
2019-01-30T04:43:56.476Z,1.70
2019-01-30T04:46:26.784Z,1.70
2019-01-30T04:48:57.156Z,1.70
2019-01-30T04:51:27.192Z,1.70
2019-01-30T04:53:57.273Z,1.70
2019-01-30T04:56:27.628Z,1.70
2019-01-30T04:58:57.625Z,1.70
2019-01-30T05:01:27.675Z,1.70
2019-01-30T05:03:57.940Z,1.70
2019-01-30T05:06:28.323Z,1.70
2019-01-30T05:08:58.478Z,1.70
2019-01-30T05:11:28.602Z,1.70
2019-01-30T05:14:01.365Z,1.70
2019-01-30T05:16:30.883Z,1.70
2019-01-30T05:19:01.429Z,1.70
2019-01-30T05:21:31.551Z,1.80
2019-01-30T05:24:03.530Z,1.80
2019-01-30T05:26:33.569Z,1.70
2019-01-30T05:29:10.951Z,1.70
2019-01-30T05:31:42.579Z,1.80
2019-01-30T05:34:12.779Z,1.80
2019-01-30T05:36:44.906Z,1.80
2019-01-30T05:39:15.054Z,1.80
2019-01-30T05:41:45.320Z,1.80
2019-01-30T05:44:15.421Z,1.90
2019-01-30T05:46:46.009Z,1.90
2019-01-30T05:49:16.680Z,1.90
2019-01-30T05:51:46.665Z,1.90
2019-01-30T05:54:16.917Z,1.90
2019-01-30T05:56:47.073Z,1.90
2019-01-30T05:59:17.051Z,1.90
2019-01-30T06:01:47.212Z,1.90
2019-01-30T06:04:17.900Z,1.90
2019-01-30T06:06:48.268Z,1.90
2019-01-30T06:09:21.223Z,1.90
2019-01-30T06:11:51.274Z,1.90
2019-01-30T06:14:21.587Z,2.00
2019-01-30T06:16:54.763Z,2.00
2019-01-30T06:19:33.099Z,1.90
2019-01-30T06:22:07.734Z,1.90
2019-01-30T06:24:43.051Z,2.00
2019-01-30T06:27:13.223Z,2.00
2019-01-30T06:29:43.596Z,2.00
2019-01-30T06:32:21.749Z,2.00
2019-01-30T06:34:52.636Z,2.00
2019-01-30T06:37:24.185Z,1.90
2019-01-30T06:39:54.349Z,1.80
2019-01-30T06:42:24.485Z,1.60
2019-01-30T06:44:54.670Z,1.40
2019-01-30T06:47:24.866Z,1.30
2019-01-30T06:49:55.359Z,1.20
2019-01-30T06:52:25.531Z,1.10
2019-01-30T06:54:57.023Z,1.00
2019-01-30T06:57:27.293Z,0.80
2019-01-30T06:59:58.063Z,0.80
2019-01-30T07:02:32.266Z,0.70
2019-01-30T07:05:00.302Z,0.70
2019-01-30T07:07:30.684Z,0.80
2019-01-30T07:10:07.016Z,0.70
2019-01-30T07:12:37.750Z,0.70
2019-01-30T07:15:09.445Z,0.70
2019-01-30T07:17:43.373Z,0.70
2019-01-30T07:20:19.533Z,0.70
2019-01-30T07:22:49.719Z,0.60
2019-01-30T07:25:21.149Z,0.60
2019-01-30T07:27:51.760Z,0.60
2019-01-30T07:30:38.104Z,0.60
2019-01-30T07:33:14.807Z,0.60
2019-01-30T07:35:48.911Z,0.60
2019-01-30T07:38:26.802Z,0.70
2019-01-30T07:41:01.700Z,0.70
2019-01-30T07:43:31.720Z,0.70
2019-01-30T07:46:03.681Z,0.70
2019-01-30T07:48:36.352Z,0.60
2019-01-30T07:51:06.962Z,0.60
2019-01-30T07:53:40.797Z,0.60
2019-01-30T07:56:13.141Z,0.60
2019-01-30T07:58:44.063Z,0.70
2019-01-30T08:01:16.863Z,0.70
2019-01-30T08:03:47.764Z,0.70
2019-01-30T08:06:19.614Z,0.80
2019-01-30T08:08:51.282Z,0.70
2019-01-30T08:11:21.757Z,0.80
2019-01-30T08:13:56.749Z,0.70
2019-01-30T08:16:27.272Z,0.70
2019-01-30T08:18:59.035Z,0.70
2019-01-30T08:21:29.243Z,0.70
2019-01-30T08:23:59.648Z,0.80
2019-01-30T08:26:32.865Z,0.70
2019-01-30T08:29:03.435Z,0.70
2019-01-30T08:31:33.964Z,0.90
2019-01-30T08:34:07.211Z,0.90
2019-01-30T08:36:41.797Z,1.00
2019-01-30T08:39:17.094Z,1.00
2019-01-30T08:41:51.159Z,1.00
2019-01-30T08:44:21.939Z,1.00
2019-01-30T08:46:52.553Z,1.10
2019-01-30T08:49:24.722Z,1.00
2019-01-30T08:51:55.040Z,1.00
2019-01-30T08:54:25.457Z,1.00
2019-01-30T08:56:56.818Z,1.00
2019-01-30T08:59:29.616Z,1.00
2019-01-30T09:02:00.252Z,1.10
2019-01-30T09:04:31.663Z,1.10
2019-01-30T09:07:04.485Z,1.00
2019-01-30T09:09:34.825Z,1.10
2019-01-30T09:12:05.392Z,1.10
2019-01-30T09:14:38.878Z,1.10
2019-01-30T09:17:14.912Z,1.20
2019-01-30T09:19:48.131Z,1.20
2019-01-30T09:22:18.299Z,1.30
2019-01-30T09:24:49.188Z,1.20
2019-01-30T09:27:20.194Z,1.30
2019-01-30T09:29:56.029Z,1.40
2019-01-30T09:32:26.404Z,1.40
2019-01-30T09:35:01.434Z,1.50
2019-01-30T09:37:33.663Z,1.40
2019-01-30T09:40:07.249Z,1.30
2019-01-30T09:42:40.783Z,1.30
2019-01-30T09:45:13.262Z,1.30
2019-01-30T09:47:43.646Z,1.30
2019-01-30T09:50:19.254Z,1.30
2019-01-30T09:52:51.687Z,1.30
2019-01-30T09:55:22.757Z,1.30
2019-01-30T09:57:56.089Z,1.40
2019-01-30T10:00:32.004Z,1.40
2019-01-30T10:03:05.456Z,1.40
2019-01-30T10:05:41.323Z,1.30
2019-01-30T10:08:11.717Z,1.40
2019-01-30T10:10:42.688Z,1.40
2019-01-30T10:13:16.762Z,1.50
2019-01-30T10:15:49.364Z,1.50
2019-01-30T10:18:23.748Z,1.50
2019-01-30T10:20:57.416Z,1.60
2019-01-30T10:23:29.133Z,1.60
2019-01-30T10:26:00.218Z,1.60
2019-01-30T10:28:33.175Z,1.70
2019-01-30T10:31:10.259Z,1.70
2019-01-30T10:33:46.639Z,1.60
2019-01-30T10:36:29.685Z,1.60
2019-01-30T10:39:02.773Z,1.70
2019-01-30T10:41:40.504Z,1.60
2019-01-30T10:44:13.408Z,1.60
2019-01-30T10:46:48.280Z,1.60
2019-01-30T10:49:19.775Z,1.60
2019-01-30T10:51:56.585Z,1.60
2019-01-30T10:54:31.340Z,1.70
2019-01-30T10:57:03.089Z,1.70
2019-01-30T10:59:43.392Z,1.80
2019-01-30T11:02:19.656Z,1.80
2019-01-30T11:04:55.165Z,1.80
2019-01-30T11:07:28.043Z,1.80
2019-01-30T11:10:02.930Z,1.90
2019-01-30T11:12:37.745Z,2.00
2019-01-30T11:15:12.855Z,2.00
2019-01-30T11:17:43.987Z,2.00
2019-01-30T11:20:16.690Z,2.00
2019-01-30T11:22:47.252Z,2.00
2019-01-30T11:25:32.530Z,1.90
2019-01-30T11:28:03.355Z,1.90
2019-01-30T11:30:37.214Z,1.90
2019-01-30T11:33:09.427Z,1.90
2019-01-30T11:35:41.186Z,1.90
2019-01-30T11:38:12.466Z,1.80
2019-01-30T11:40:46.646Z,1.80
2019-01-30T11:43:17.962Z,1.80
2019-01-30T11:45:50.293Z,1.80
2019-01-30T11:48:22.258Z,1.80
2019-01-30T11:50:53.065Z,1.70
2019-01-30T11:53:29.398Z,1.80
2019-01-30T11:56:06.301Z,1.60
2019-01-30T11:58:37.103Z,1.80
2019-01-30T12:01:08.779Z,1.80
2019-01-30T12:03:40.301Z,1.80
2019-01-30T12:06:16.396Z,1.90
2019-01-30T12:08:56.208Z,1.80
2019-01-30T12:11:27.058Z,1.80
2019-01-30T12:13:58.317Z,1.80
2019-01-30T12:16:28.801Z,2.00
2019-01-30T12:19:05.081Z,2.10
2019-01-30T12:21:38.868Z,2.10
2019-01-30T12:24:11.427Z,2.10
2019-01-30T12:26:43.216Z,2.10
2019-01-30T12:29:13.950Z,2.00
2019-01-30T12:31:49.639Z,2.10
2019-01-30T12:34:28.169Z,2.00
2019-01-30T12:36:52.341Z,2.00
2019-01-30T12:39:24.870Z,2.00
2019-01-30T12:41:59.889Z,2.10
2019-01-30T12:44:30.655Z,2.10
2019-01-30T12:47:05.917Z,2.00
2019-01-30T12:49:38.326Z,2.00
2019-01-30T12:52:09.899Z,2.10
2019-01-30T12:54:42.981Z,2.10
2019-01-30T12:57:22.780Z,2.10
2019-01-30T12:59:56.895Z,2.10
2019-01-30T13:02:27.896Z,2.00
2019-01-30T13:04:58.265Z,2.10
2019-01-30T13:07:28.590Z,2.10
2019-01-30T13:10:02.054Z,2.10
2019-01-30T13:12:32.680Z,2.00
2019-01-30T13:15:03.518Z,2.00
2019-01-30T13:17:34.217Z,2.00
2019-01-30T13:20:08.163Z,2.00
2019-01-30T13:22:38.419Z,2.00
2019-01-30T13:25:09.565Z,2.00
2019-01-30T13:27:39.902Z,2.00
2019-01-30T13:30:34.037Z,1.90
2019-01-30T13:33:05.676Z,1.90
2019-01-30T13:35:37.663Z,1.80
2019-01-30T13:38:12.785Z,1.80
2019-01-30T13:40:46.810Z,1.80
2019-01-30T13:43:17.563Z,1.80
2019-01-30T13:45:48.591Z,1.70
2019-01-30T13:48:24.503Z,1.60
2019-01-30T13:51:04.064Z,1.60
2019-01-30T13:53:38.715Z,1.50
2019-01-30T13:56:09.567Z,1.50
2019-01-30T13:58:52.227Z,1.50
2019-01-30T14:01:25.850Z,1.50
2019-01-30T14:04:01.312Z,1.40
2019-01-30T14:06:40.102Z,1.40
2019-01-30T14:09:11.423Z,1.20
2019-01-30T14:11:53.374Z,1.20
2019-01-30T14:14:25.632Z,1.20
2019-01-30T14:16:59.016Z,1.20
2019-01-30T14:19:32.260Z,1.30
2019-01-30T14:22:07.506Z,1.20
2019-01-30T14:24:38.301Z,1.20
2019-01-30T14:27:10.997Z,1.20
2019-01-30T14:29:46.412Z,1.20
2019-01-30T14:32:23.808Z,1.20
2019-01-30T14:34:53.977Z,1.10
2019-01-30T14:37:27.890Z,1.20
2019-01-30T14:40:01.313Z,1.20
2019-01-30T14:42:33.923Z,1.10
2019-01-30T14:45:18.180Z,1.10
2019-01-30T14:48:04.719Z,1.10
2019-01-30T14:50:40.756Z,1.10
2019-01-30T14:53:12.625Z,1.20
2019-01-30T14:55:46.115Z,1.10
2019-01-30T14:58:24.912Z,1.10
2019-01-30T15:00:58.024Z,1.10
2019-01-30T15:03:35.110Z,1.10
2019-01-30T15:06:07.372Z,1.10
2019-01-30T15:08:40.419Z,1.00
2019-01-30T15:11:20.753Z,1.00
2019-01-30T15:16:21.222Z,1.00
2019-01-30T15:18:52.029Z,1.00
2019-01-30T15:21:23.254Z,0.90
2019-01-30T15:23:55.178Z,1.00
2019-01-30T15:26:29.421Z,1.00
2019-01-30T15:29:01.560Z,1.00
2019-01-30T15:31:32.508Z,1.10
2019-01-30T15:34:12.479Z,1.10
2019-01-30T15:36:47.852Z,1.10
2019-01-30T15:39:19.872Z,1.00
2019-01-30T15:41:50.338Z,1.00
2019-01-30T15:44:29.695Z,1.00
2019-01-30T15:47:01.105Z,1.00
2019-01-30T15:49:36.719Z,1.00
2019-01-30T15:52:21.916Z,1.00
2019-01-30T15:54:54.393Z,1.00
2019-01-30T15:57:30.891Z,1.00
2019-01-30T16:00:09.301Z,1.00
2019-01-30T16:02:48.299Z,1.00
2019-01-30T16:05:27.620Z,1.00
2019-01-30T16:08:05.713Z,1.00
2019-01-30T16:10:46.892Z,1.00
2019-01-30T16:13:21.050Z,1.10
2019-01-30T16:16:17.477Z,1.10
2019-01-30T16:18:55.012Z,1.20
2019-01-30T16:21:26.824Z,1.10
2019-01-30T16:24:00.729Z,1.20
2019-01-30T16:26:34.679Z,1.20
2019-01-30T16:29:06.909Z,1.20
2019-01-30T16:31:50.230Z,1.30
2019-01-30T16:34:28.299Z,1.30
2019-01-30T16:37:01.956Z,1.30
2019-01-30T16:39:33.280Z,1.30
2019-01-30T16:42:24.511Z,1.30
2019-01-30T16:45:05.416Z,1.30
2019-01-30T16:47:37.121Z,1.40
2019-01-30T16:50:13.814Z,1.40
2019-01-30T16:52:48.234Z,1.40
2019-01-30T16:55:30.619Z,1.40
2019-01-30T16:58:01.896Z,1.50
2019-01-30T17:00:34.146Z,1.40
2019-01-30T17:03:08.097Z,1.50
2019-01-30T17:05:40.286Z,1.50
2019-01-30T17:08:20.252Z,1.50
2019-01-30T17:11:02.963Z,1.60
2019-01-30T17:13:37.393Z,1.60
2019-01-30T17:16:17.685Z,1.60
2019-01-30T17:18:52.804Z,1.50
2019-01-30T17:21:23.683Z,1.60
2019-01-30T17:24:19.602Z,1.60
2019-01-30T17:26:53.363Z,1.60
2019-01-30T17:29:25.283Z,1.60
2019-01-30T17:32:03.192Z,1.70
2019-01-30T17:34:39.607Z,1.70
2019-01-30T17:37:13.874Z,1.70
2019-01-30T17:39:46.665Z,1.70
2019-01-30T17:42:21.941Z,1.70
2019-01-30T17:44:55.247Z,1.70
2019-01-30T17:47:30.694Z,1.80
2019-01-30T17:50:16.514Z,1.90
2019-01-30T17:53:10.287Z,1.80
2019-01-30T17:55:54.006Z,1.80
2019-01-30T17:58:34.248Z,1.70
2019-01-30T18:01:22.853Z,1.80
2019-01-30T18:04:02.140Z,1.80
2019-01-30T18:06:35.862Z,1.80
2019-01-30T18:09:14.868Z,1.80
2019-01-30T18:11:48.983Z,1.70
2019-01-30T18:14:19.915Z,1.70
2019-01-30T18:16:58.509Z,1.80
2019-01-30T18:19:36.750Z,1.80
2019-01-30T18:22:10.715Z,1.80
2019-01-30T18:24:49.376Z,1.80
2019-01-30T18:27:22.802Z,1.90
2019-01-30T18:29:56.776Z,2.00
2019-01-30T18:32:28.357Z,1.90
2019-01-30T18:35:12.415Z,1.90
2019-01-30T18:37:49.168Z,2.00
2019-01-30T18:40:25.093Z,2.00
2019-01-30T18:43:13.296Z,1.90
2019-01-30T18:45:55.155Z,1.90
2019-01-30T18:48:33.752Z,2.00
2019-01-30T18:51:13.178Z,2.00
2019-01-30T18:53:50.203Z,2.00
2019-01-30T18:56:29.272Z,2.00
2019-01-30T18:59:08.238Z,2.00
2019-01-30T19:01:58.182Z,2.00
2019-01-30T19:04:45.779Z,1.90
2019-01-30T19:07:24.862Z,1.90
2019-01-30T19:10:08.716Z,1.70
2019-01-30T19:12:45.235Z,1.60
2019-01-30T19:15:22.465Z,1.50
2019-01-30T19:18:09.633Z,1.50
2019-01-30T19:20:52.606Z,1.60
2019-01-30T19:23:28.976Z,1.50
2019-01-30T19:26:09.280Z,1.60
2019-01-30T19:28:44.118Z,1.60
2019-01-30T19:31:17.745Z,1.60
2019-01-30T19:33:52.759Z,1.60
2019-01-30T19:36:32.971Z,1.50
2019-01-30T19:39:07.421Z,1.40
2019-01-30T19:41:45.187Z,1.50
2019-01-30T19:44:20.266Z,1.40
2019-01-30T19:47:01.482Z,1.40
2019-01-30T19:49:39.594Z,1.40
2019-01-30T19:52:23.429Z,1.40
2019-01-30T19:55:09.712Z,1.40
2019-01-30T19:57:44.467Z,1.40
2019-01-30T20:00:29.481Z,1.40
2019-01-30T20:03:04.242Z,1.50
2019-01-30T20:05:42.842Z,1.50
2019-01-30T20:08:18.513Z,1.50
2019-01-30T20:10:51.909Z,1.50
2019-01-30T20:13:22.768Z,1.50
2019-01-30T20:15:56.623Z,1.50
2019-01-30T20:18:29.360Z,1.50
2019-01-30T20:21:03.668Z,1.50
2019-01-30T20:23:55.761Z,1.50
2019-01-30T20:26:28.428Z,1.40
2019-01-30T20:29:23.385Z,1.50
2019-01-30T20:32:09.390Z,1.50
2019-01-30T20:34:50.203Z,1.50
2019-01-30T20:37:39.084Z,1.50
2019-01-30T20:40:19.126Z,1.60
2019-01-30T20:42:52.889Z,1.70
2019-01-30T20:45:33.399Z,1.70
2019-01-30T20:48:11.267Z,1.70
2019-01-30T20:50:47.702Z,1.70
2019-01-30T20:53:19.885Z,1.70
2019-01-30T20:55:57.476Z,1.70
2019-01-30T20:58:36.142Z,1.80
2019-01-30T21:01:20.290Z,1.90
2019-01-30T21:04:25.894Z,1.80
2019-01-30T21:06:58.713Z,1.80
2019-01-30T21:09:42.662Z,1.90
2019-01-30T21:12:19.457Z,1.90
2019-01-30T21:14:58.493Z,1.90
2019-01-30T21:17:58.943Z,1.80
2019-01-30T21:20:37.964Z,1.80
2019-01-30T21:23:10.433Z,1.90
2019-01-30T21:25:45.429Z,1.90
2019-01-30T21:28:20.833Z,1.90
2019-01-30T21:30:52.055Z,1.90
2019-01-30T21:33:23.940Z,2.00
2019-01-30T21:36:00.984Z,1.90
2019-01-30T21:38:35.807Z,2.00
2019-01-30T21:41:07.833Z,2.10
2019-01-30T21:43:46.105Z,2.10
2019-01-30T21:46:24.293Z,2.20
2019-01-30T21:49:06.344Z,2.30
2019-01-30T21:54:45.788Z,2.40
2019-01-30T21:57:17.831Z,2.30
2019-01-30T22:00:00.415Z,2.30
2019-01-30T22:02:35.743Z,2.30
2019-01-30T22:05:10.013Z,2.30
2019-01-30T22:07:40.641Z,2.30
2019-01-30T22:10:21.254Z,2.30
2019-01-30T22:13:05.312Z,2.30
2019-01-30T22:15:38.965Z,2.30
2019-01-30T22:18:12.357Z,2.30
2019-01-30T22:20:43.210Z,2.30
2019-01-30T22:23:14.153Z,2.30
2019-01-30T22:25:45.896Z,2.20
2019-01-30T22:28:41.834Z,2.10
2019-01-30T22:31:19.461Z,2.00
2019-01-30T22:34:14.733Z,2.00
2019-01-30T22:36:49.189Z,1.90
2019-01-30T22:39:34.356Z,1.90
2019-01-30T22:42:05.261Z,1.80
2019-01-30T22:44:35.894Z,1.80
2019-01-30T22:47:08.893Z,1.80
2019-01-30T22:49:40.195Z,1.70
2019-01-30T22:52:13.666Z,1.70
2019-01-30T22:54:44.572Z,1.70
2019-01-30T22:57:15.591Z,1.70
2019-01-30T22:59:47.594Z,1.80
2019-01-30T23:02:19.030Z,1.80
2019-01-30T23:05:41.064Z,1.80
2019-01-30T23:08:31.373Z,1.70
2019-01-30T23:11:53.836Z,1.60
2019-01-30T23:14:49.729Z,1.50
2019-01-30T23:18:19.211Z,1.60
2019-01-30T23:20:58.452Z,1.60
2019-01-30T23:24:07.557Z,1.60
2019-01-30T23:27:16.090Z,1.50
2019-01-30T23:30:18.045Z,1.50
2019-01-30T23:33:24.528Z,1.60
2019-01-30T23:36:30.009Z,1.50
2019-01-30T23:39:35.349Z,1.50
2019-01-30T23:42:17.801Z,1.50
2019-01-30T23:45:37.579Z,1.50
2019-01-30T23:48:57.091Z,1.50
2019-01-30T23:52:12.743Z,1.50
2019-01-30T23:55:14.693Z,1.50
2019-01-30T23:58:29.791Z,1.40
